createdAt,value
2022-08-09T00:01:01.812Z,58.73
2022-08-09T00:04:05.838Z,58.71
2022-08-09T00:06:18.272Z,59.03
2022-08-09T00:08:35.443Z,59.13
2022-08-09T00:11:05.784Z,58.75
2022-08-09T00:13:38.499Z,59.21
2022-08-09T00:16:12.824Z,58.55
2022-08-09T00:18:41.576Z,59.10
2022-08-09T00:21:12.010Z,59.16
2022-08-09T00:23:54.963Z,59.26
2022-08-09T00:26:14.865Z,59.41
2022-08-09T00:28:52.865Z,59.41
2022-08-09T00:31:56.845Z,59.83
2022-08-09T00:33:49.074Z,59.49
2022-08-09T00:36:19.211Z,59.38
2022-08-09T00:38:51.165Z,59.23
2022-08-09T00:44:11.448Z,59.66
2022-08-09T00:44:15.930Z,59.25
2022-08-09T00:46:55.226Z,60.03
2022-08-09T00:48:57.213Z,59.59
2022-08-09T00:51:28.804Z,59.87
2022-08-09T00:54:00.431Z,60.51
2022-08-09T00:56:31.911Z,60.09
2022-08-09T00:59:01.380Z,59.92
2022-08-09T01:01:44.721Z,60.50
2022-08-09T01:04:14.014Z,60.68
2022-08-09T01:06:55.816Z,60.75
2022-08-09T01:09:40.107Z,61.22
2022-08-09T01:12:29.573Z,61.06
2022-08-09T01:15:06.000Z,60.91
2022-08-09T01:17:48.125Z,60.92
2022-08-09T01:20:37.312Z,60.51
2022-08-09T01:24:03.012Z,60.54
2022-08-09T01:26:12.310Z,61.07
2022-08-09T01:28:47.329Z,61.74
2022-08-09T01:31:40.915Z,60.73
2022-08-09T01:33:54.855Z,60.76
2022-08-09T01:36:27.812Z,61.44
2022-08-09T01:38:59.788Z,61.43
2022-08-09T01:41:37.060Z,61.39
2022-08-09T01:44:11.367Z,61.43
2022-08-09T01:46:47.135Z,61.35
2022-08-09T01:49:20.935Z,60.96
2022-08-09T01:51:56.434Z,61.07
2022-08-09T01:54:35.037Z,61.17
2022-08-09T01:57:08.157Z,61.39
2022-08-09T01:59:51.570Z,61.75
2022-08-09T02:02:14.171Z,61.65
2022-08-09T02:04:45.530Z,62.10
2022-08-09T02:08:40.052Z,61.18
2022-08-09T02:09:59.334Z,62.11
2022-08-09T02:12:26.817Z,62.59
2022-08-09T02:14:59.004Z,61.95
2022-08-09T02:18:00.798Z,62.09
2022-08-09T02:20:03.366Z,62.70
2022-08-09T02:22:40.254Z,62.70
2022-08-09T02:25:26.144Z,62.79
2022-08-09T02:28:03.923Z,62.39
2022-08-09T02:30:34.813Z,63.01
2022-08-09T02:33:07.804Z,62.41
2022-08-09T02:36:03.074Z,62.70
2022-08-09T02:38:27.991Z,62.31
2022-08-09T02:40:46.429Z,62.77
2022-08-09T02:43:20.010Z,62.50
2022-08-09T02:45:53.177Z,62.80
2022-08-09T02:48:31.045Z,62.62
2022-08-09T02:50:57.874Z,62.63
2022-08-09T02:53:31.459Z,62.60
2022-08-09T02:56:05.205Z,62.40
2022-08-09T02:58:38.090Z,62.66
2022-08-09T03:01:10.684Z,62.80
2022-08-09T03:04:18.967Z,63.08
2022-08-09T03:06:14.965Z,63.35
2022-08-09T03:08:47.370Z,64.46
2022-08-09T03:11:29.672Z,64.49
2022-08-09T03:13:59.619Z,63.76
2022-08-09T03:16:25.484Z,64.30
2022-08-09T03:18:56.792Z,64.30
2022-08-09T03:21:36.527Z,64.17
2022-08-09T03:24:04.262Z,63.83
2022-08-09T03:26:34.441Z,64.24
2022-08-09T03:29:09.617Z,63.19
2022-08-09T03:31:42.349Z,63.89
2022-08-09T03:34:14.037Z,64.00
2022-08-09T03:36:58.223Z,63.79
2022-08-09T03:39:15.992Z,64.06
2022-08-09T03:41:48.752Z,64.06
2022-08-09T03:44:17.403Z,64.35
2022-08-09T03:46:49.685Z,64.34
2022-08-09T03:49:23.968Z,64.55
2022-08-09T03:52:00.141Z,64.43
2022-08-09T03:54:34.803Z,64.78
2022-08-09T03:57:18.583Z,64.89
2022-08-09T03:59:53.039Z,65.62
2022-08-09T04:02:14.243Z,65.19
2022-08-09T04:04:45.554Z,64.90
2022-08-09T04:07:16.074Z,64.68
2022-08-09T04:09:48.984Z,64.71
2022-08-09T04:12:36.393Z,64.75
2022-08-09T04:15:17.079Z,65.07
2022-08-09T04:17:42.376Z,64.99
2022-08-09T04:20:15.532Z,65.08
2022-08-09T04:22:46.634Z,65.96
2022-08-09T04:25:16.406Z,65.75
2022-08-09T04:27:46.659Z,65.61
2022-08-09T04:30:26.120Z,64.88
2022-08-09T04:32:55.602Z,64.88
2022-08-09T04:35:25.404Z,65.96
2022-08-09T04:37:56.931Z,66.30
2022-08-09T04:40:35.899Z,65.21
2022-08-09T04:42:59.595Z,65.58
2022-08-09T04:45:30.818Z,65.30
2022-08-09T04:48:02.116Z,65.66
2022-08-09T04:50:37.800Z,66.02
2022-08-09T04:53:05.950Z,65.81
2022-08-09T04:55:57.233Z,65.64
2022-08-09T04:58:12.358Z,65.70
2022-08-09T05:00:43.701Z,65.46
2022-08-09T05:03:40.169Z,65.81
2022-08-09T05:05:52.462Z,65.79
2022-08-09T05:08:17.645Z,66.28
2022-08-09T05:10:47.698Z,66.03
2022-08-09T05:13:17.501Z,66.07
2022-08-09T05:15:47.926Z,67.12
2022-08-09T05:18:39.766Z,66.93
2022-08-09T05:20:49.856Z,67.27
2022-08-09T05:23:53.883Z,66.62
2022-08-09T05:25:52.767Z,67.52
2022-08-09T05:28:22.714Z,67.48
2022-08-09T05:30:54.144Z,67.60
2022-08-09T05:33:26.442Z,68.07
2022-08-09T05:35:57.240Z,68.29
2022-08-09T05:38:28.002Z,68.24
2022-08-09T05:40:57.892Z,68.18
2022-08-09T05:43:29.110Z,67.43
2022-08-09T05:45:58.938Z,66.46
2022-08-09T05:48:33.349Z,66.33
2022-08-09T05:51:29.733Z,66.52
2022-08-09T05:53:33.319Z,65.80
2022-08-09T05:56:02.917Z,64.78
2022-08-09T05:58:33.002Z,65.62
2022-08-09T06:01:03.550Z,64.71
2022-08-09T06:03:43.919Z,66.16
2022-08-09T06:06:08.091Z,65.90
2022-08-09T06:08:37.878Z,65.89
2022-08-09T06:11:17.480Z,65.67
2022-08-09T06:13:40.101Z,65.76
2022-08-09T06:16:11.519Z,66.51
2022-08-09T06:18:42.167Z,65.05
2022-08-09T06:21:12.115Z,65.98
2022-08-09T06:23:58.382Z,66.05
2022-08-09T06:26:21.318Z,65.84
2022-08-09T06:29:00.963Z,64.61
2022-08-09T06:31:30.728Z,63.57
2022-08-09T06:33:55.511Z,63.04
2022-08-09T06:36:29.814Z,62.22
2022-08-09T06:38:58.932Z,61.36
2022-08-09T06:42:07.715Z,61.56
2022-08-09T06:44:02.574Z,60.95
2022-08-09T06:46:39.490Z,61.00
2022-08-09T06:49:04.376Z,60.38
2022-08-09T06:51:39.074Z,60.30
2022-08-09T06:54:11.816Z,60.00
2022-08-09T06:56:39.475Z,59.10
2022-08-09T07:00:52.250Z,57.79
2022-08-09T07:01:53.865Z,58.69
2022-08-09T07:04:20.133Z,58.66
2022-08-09T07:06:45.171Z,57.47
2022-08-09T07:09:57.412Z,55.78
2022-08-09T07:11:52.139Z,55.78
2022-08-09T07:14:26.393Z,55.83
2022-08-09T07:16:57.952Z,55.19
2022-08-09T07:21:57.405Z,54.15
2022-08-09T07:24:31.467Z,54.25
2022-08-09T07:26:56.392Z,53.02
2022-08-09T07:29:27.563Z,52.52
2022-08-09T07:32:00.511Z,52.52
2022-08-09T07:34:31.684Z,52.02
2022-08-09T07:37:03.633Z,52.18
2022-08-09T07:39:41.245Z,51.33
2022-08-09T07:42:06.995Z,51.54
2022-08-09T07:44:51.965Z,51.20
2022-08-09T07:47:09.931Z,50.04
2022-08-09T07:50:04.788Z,50.35
2022-08-09T07:52:17.897Z,49.93
2022-08-09T07:54:43.578Z,50.03
2022-08-09T07:57:15.042Z,49.20
2022-08-09T07:59:50.920Z,48.43
2022-08-09T08:02:19.438Z,48.43
2022-08-09T08:04:49.012Z,48.54
2022-08-09T08:08:42.878Z,48.44
2022-08-09T08:09:55.143Z,48.44
2022-08-09T08:12:27.829Z,46.25
2022-08-09T08:14:53.350Z,46.37
2022-08-09T08:17:35.526Z,46.37
2022-08-09T08:19:54.740Z,46.38
2022-08-09T08:22:25.748Z,45.03
2022-08-09T08:24:58.115Z,45.01
2022-08-09T08:27:28.362Z,44.85
2022-08-09T08:29:59.881Z,44.23
2022-08-09T08:32:34.025Z,43.85
2022-08-09T08:35:04.601Z,43.45
2022-08-09T08:37:41.700Z,42.85
2022-08-09T08:40:08.927Z,42.86
2022-08-09T08:42:38.928Z,42.34
2022-08-09T08:45:13.809Z,40.93
2022-08-09T08:47:46.182Z,40.50
2022-08-09T08:50:18.097Z,40.70
2022-08-09T08:52:57.634Z,39.47
2022-08-09T08:55:23.482Z,39.47
2022-08-09T08:57:57.213Z,38.49
2022-08-09T09:00:34.386Z,38.49
2022-08-09T09:03:11.670Z,38.35
2022-08-09T09:05:59.925Z,37.63
2022-08-09T09:08:30.418Z,37.33
2022-08-09T09:10:44.792Z,37.14
2022-08-09T09:13:18.955Z,37.05
2022-08-09T09:15:49.270Z,35.93
2022-08-09T09:18:19.077Z,36.82
2022-08-09T09:20:48.844Z,37.75
2022-08-09T09:23:39.605Z,37.33
2022-08-09T09:26:13.355Z,35.70
2022-08-09T09:29:03.681Z,36.01
2022-08-09T09:32:06.305Z,35.39
2022-08-09T09:33:56.944Z,35.39
2022-08-09T09:36:28.185Z,34.84
2022-08-09T09:38:58.585Z,34.48
2022-08-09T09:41:32.690Z,34.40
2022-08-09T09:44:10.939Z,35.05
2022-08-09T09:46:42.062Z,34.61
2022-08-09T09:49:16.285Z,33.90
2022-08-09T09:51:47.854Z,33.71
2022-08-09T09:54:21.190Z,33.23
2022-08-09T09:58:00.231Z,33.58
2022-08-09T09:59:29.357Z,33.31
2022-08-09T10:02:01.473Z,32.83
2022-08-09T10:04:31.928Z,32.66
2022-08-09T10:07:03.427Z,32.50
2022-08-09T10:09:48.959Z,32.41
2022-08-09T10:15:50.735Z,33.11
2022-08-09T10:17:56.229Z,32.59
2022-08-09T10:20:35.916Z,31.46
2022-08-09T10:23:00.980Z,31.46
2022-08-09T10:25:34.762Z,31.71
2022-08-09T10:28:02.750Z,31.84
2022-08-09T10:33:04.690Z,32.16
2022-08-09T10:35:36.888Z,31.56
2022-08-09T10:38:33.751Z,31.30
2022-08-09T10:40:44.563Z,30.88
2022-08-09T10:43:13.617Z,30.88
2022-08-09T10:45:49.413Z,29.46
2022-08-09T10:48:36.452Z,29.47
2022-08-09T10:51:41.242Z,29.47
2022-08-09T10:54:12.218Z,29.70
2022-08-09T10:56:44.268Z,29.28
2022-08-09T10:59:30.701Z,28.39
2022-08-09T11:03:11.547Z,28.54
2022-08-09T11:04:34.867Z,29.59
2022-08-09T11:07:08.171Z,29.01
2022-08-09T11:09:47.846Z,29.04
2022-08-09T11:12:29.883Z,29.88
2022-08-09T11:15:24.088Z,29.88
2022-08-09T11:18:03.104Z,30.38
2022-08-09T11:20:42.274Z,30.20
2022-08-09T11:23:14.124Z,29.82
2022-08-09T11:25:48.626Z,29.48
2022-08-09T11:28:35.059Z,30.17
2022-08-09T11:31:36.486Z,29.41
2022-08-09T11:33:58.811Z,30.00
2022-08-09T11:36:35.941Z,30.26
2022-08-09T11:39:04.128Z,30.64
2022-08-09T11:41:37.651Z,30.44
2022-08-09T11:44:06.732Z,30.51
2022-08-09T11:46:56.867Z,29.65
2022-08-09T11:50:55.663Z,29.14
2022-08-09T11:53:58.020Z,30.24
2022-08-09T11:55:53.306Z,30.83
2022-08-09T11:58:30.394Z,29.91
2022-08-09T12:00:58.949Z,29.91
2022-08-09T12:03:55.016Z,30.00
2022-08-09T12:06:05.192Z,29.33
2022-08-09T12:08:37.112Z,28.49
2022-08-09T12:11:12.748Z,28.49
2022-08-09T12:14:08.352Z,28.25
2022-08-09T12:16:30.712Z,27.84
2022-08-09T12:18:54.323Z,26.45
2022-08-09T12:21:38.302Z,27.37
2022-08-09T12:24:09.258Z,28.47
2022-08-09T12:26:41.300Z,27.58
2022-08-09T12:29:33.043Z,26.74
2022-08-09T12:32:04.453Z,26.98
2022-08-09T12:34:36.692Z,27.11
2022-08-09T12:37:21.824Z,27.44
2022-08-09T12:39:40.410Z,27.36
2022-08-09T12:42:16.295Z,27.81
2022-08-09T12:44:52.366Z,27.81
2022-08-09T12:47:23.134Z,26.67
2022-08-09T12:50:08.184Z,26.87
2022-08-09T12:53:07.920Z,26.23
2022-08-09T12:56:14.330Z,26.31
2022-08-09T12:58:02.452Z,25.55
2022-08-09T13:00:35.317Z,26.71
2022-08-09T13:03:06.363Z,26.12
2022-08-09T13:05:51.599Z,25.90
2022-08-09T13:08:40.596Z,27.08
2022-08-09T13:11:00.550Z,25.51
2022-08-09T13:14:01.041Z,25.94
2022-08-09T13:16:12.383Z,26.55
2022-08-09T13:18:44.938Z,25.99
2022-08-09T13:22:35.478Z,24.40
2022-08-09T13:24:33.078Z,24.43
2022-08-09T13:26:42.505Z,25.29
2022-08-09T13:29:17.689Z,25.16
2022-08-09T13:32:19.902Z,25.63
2022-08-09T13:34:41.724Z,25.41
2022-08-09T13:37:12.107Z,26.73
2022-08-09T13:41:54.354Z,26.73
2022-08-09T13:42:15.300Z,26.24
2022-08-09T13:44:48.621Z,25.99
2022-08-09T13:47:44.063Z,25.89
2022-08-09T13:49:56.445Z,26.92
2022-08-09T13:52:21.031Z,25.83
2022-08-09T13:54:59.879Z,25.93
2022-08-09T13:57:36.628Z,26.21
2022-08-09T13:59:54.800Z,26.22
2022-08-09T14:02:26.352Z,25.21
2022-08-09T14:05:00.106Z,25.28
2022-08-09T14:07:30.187Z,25.47
2022-08-09T14:09:58.844Z,25.01
2022-08-09T14:12:28.610Z,23.94
2022-08-09T14:14:58.660Z,23.94
2022-08-09T14:17:32.774Z,24.10
2022-08-09T14:20:01.087Z,24.50
2022-08-09T14:22:33.060Z,24.89
2022-08-09T14:25:02.985Z,24.87
2022-08-09T14:27:34.223Z,24.98
2022-08-09T14:30:37.222Z,24.50
2022-08-09T14:32:38.111Z,24.64
2022-08-09T14:35:09.022Z,25.08
2022-08-09T14:37:51.725Z,24.79
2022-08-09T14:40:11.869Z,25.01
2022-08-09T14:42:43.148Z,24.99
2022-08-09T14:46:39.643Z,25.02
2022-08-09T14:47:57.017Z,23.90
2022-08-09T14:50:17.429Z,23.95
2022-08-09T14:52:49.998Z,23.95
2022-08-09T14:55:20.279Z,24.24
2022-08-09T14:57:50.711Z,25.00
2022-08-09T15:00:20.743Z,24.60
2022-08-09T15:02:51.792Z,24.79
2022-08-09T15:05:21.873Z,24.83
2022-08-09T15:07:56.547Z,24.82
2022-08-09T15:10:24.948Z,25.46
2022-08-09T15:12:56.558Z,25.35
2022-08-09T15:15:28.451Z,24.92
2022-08-09T15:17:58.720Z,25.11
2022-08-09T15:21:54.685Z,24.74
2022-08-09T15:23:55.939Z,24.74
2022-08-09T15:25:41.344Z,24.42
2022-08-09T15:28:20.176Z,24.77
2022-08-09T15:30:56.502Z,24.79
2022-08-09T15:33:15.173Z,24.51
2022-08-09T15:35:44.955Z,24.31
2022-08-09T15:38:15.578Z,23.90
2022-08-09T15:40:47.065Z,24.51
2022-08-09T15:43:16.822Z,23.67
2022-08-09T15:45:52.047Z,23.79
2022-08-09T15:48:29.180Z,24.03
2022-08-09T15:50:49.638Z,24.03
2022-08-09T15:54:05.836Z,24.02
2022-08-09T15:56:11.054Z,24.18
2022-08-09T15:58:26.546Z,24.25
2022-08-09T16:00:54.155Z,23.93
2022-08-09T16:03:37.974Z,24.32
2022-08-09T16:06:02.936Z,24.03
2022-08-09T16:08:29.727Z,24.44
2022-08-09T16:11:02.519Z,23.27
2022-08-09T16:14:05.271Z,23.27
2022-08-09T16:16:13.518Z,24.19
2022-08-09T16:18:45.276Z,24.17
2022-08-09T16:21:09.829Z,24.29
2022-08-09T16:23:41.506Z,24.12
2022-08-09T16:26:20.123Z,23.58
2022-08-09T16:28:43.061Z,24.05
2022-08-09T16:31:15.880Z,23.55
2022-08-09T16:33:44.171Z,23.46
2022-08-09T16:36:18.382Z,23.71
2022-08-09T16:38:46.309Z,23.60
2022-08-09T16:41:20.854Z,24.35
2022-08-09T16:43:48.945Z,24.35
2022-08-09T16:46:21.284Z,24.25
2022-08-09T16:48:59.516Z,24.28
2022-08-09T16:51:22.633Z,24.24
2022-08-09T16:54:24.824Z,24.26
2022-08-09T16:56:25.303Z,23.92
2022-08-09T16:58:54.995Z,24.26
2022-08-09T17:01:26.620Z,24.44
2022-08-09T17:03:57.210Z,24.54
2022-08-09T17:06:31.414Z,24.28
2022-08-09T17:09:17.559Z,24.20
2022-08-09T17:11:40.094Z,23.98
2022-08-09T17:14:02.313Z,24.49
2022-08-09T17:16:31.956Z,24.51
2022-08-09T17:19:05.326Z,25.89
2022-08-09T17:21:35.235Z,25.81
2022-08-09T17:24:27.572Z,25.36
2022-08-09T17:26:38.652Z,25.76
2022-08-09T17:29:11.689Z,25.60
2022-08-09T17:31:40.333Z,25.58
2022-08-09T17:35:00.542Z,25.30
2022-08-09T17:36:53.438Z,25.50
2022-08-09T17:39:14.296Z,23.41
2022-08-09T17:41:44.899Z,23.41
2022-08-09T17:44:42.233Z,22.76
2022-08-09T17:46:55.379Z,22.30
2022-08-09T17:49:21.760Z,22.64
2022-08-09T17:51:52.564Z,22.57
2022-08-09T17:54:25.370Z,23.35
2022-08-09T17:56:54.464Z,23.41
2022-08-09T17:59:24.281Z,25.03
2022-08-09T18:02:06.606Z,26.65
2022-08-09T18:04:27.629Z,27.63
2022-08-09T18:06:57.322Z,29.04
2022-08-09T18:09:40.135Z,29.88
2022-08-09T18:12:15.157Z,30.04
2022-08-09T18:14:31.805Z,30.81
2022-08-09T18:17:01.571Z,31.51
2022-08-09T18:21:00.836Z,31.73
2022-08-09T18:22:02.788Z,31.93
2022-08-09T18:24:33.121Z,32.37
2022-08-09T18:27:03.621Z,32.84
2022-08-09T18:30:37.730Z,33.00
2022-08-09T18:32:07.296Z,32.99
2022-08-09T18:34:38.820Z,33.21
2022-08-09T18:37:10.413Z,33.13
2022-08-09T18:39:42.287Z,33.99
2022-08-09T18:42:12.688Z,33.82
2022-08-09T18:44:43.497Z,34.19
2022-08-09T18:47:16.652Z,33.98
2022-08-09T18:49:46.982Z,34.33
2022-08-09T18:52:18.780Z,34.31
2022-08-09T18:54:53.252Z,34.69
2022-08-09T18:57:23.152Z,34.73
2022-08-09T18:59:55.075Z,35.17
2022-08-09T19:02:30.794Z,35.18
2022-08-09T19:05:04.327Z,35.07
2022-08-09T19:07:28.713Z,34.96
2022-08-09T19:10:13.757Z,35.22
2022-08-09T19:12:33.755Z,35.62
2022-08-09T19:15:06.405Z,35.78
2022-08-09T19:17:55.043Z,35.47
2022-08-09T19:20:16.124Z,35.95
2022-08-09T19:22:53.970Z,36.38
2022-08-09T19:25:41.256Z,36.14
2022-08-09T19:27:51.036Z,36.50
2022-08-09T19:30:28.204Z,36.83
2022-08-09T19:32:53.603Z,36.61
2022-08-09T19:35:26.614Z,36.87
2022-08-09T19:37:57.713Z,36.87
2022-08-09T19:40:34.001Z,37.18
2022-08-09T19:43:01.779Z,37.45
2022-08-09T19:45:39.256Z,37.25
2022-08-09T19:48:03.345Z,37.32
2022-08-09T19:50:50.248Z,37.79
2022-08-09T19:53:04.717Z,38.05
2022-08-09T19:56:02.449Z,37.65
2022-08-09T19:58:15.862Z,38.04
2022-08-09T20:00:43.237Z,38.10
2022-08-09T20:04:07.558Z,38.61
2022-08-09T20:05:46.913Z,38.52
2022-08-09T20:08:33.391Z,38.52
2022-08-09T20:10:47.936Z,38.55
2022-08-09T20:13:21.080Z,38.76
2022-08-09T20:16:36.656Z,39.07
2022-08-09T20:18:23.098Z,39.35
2022-08-09T20:20:55.234Z,39.25
2022-08-09T20:23:39.237Z,39.49
2022-08-09T20:25:59.044Z,39.65
2022-08-09T20:28:38.746Z,39.49
2022-08-09T20:31:00.267Z,40.38
2022-08-09T20:33:39.252Z,40.44
2022-08-09T20:36:02.928Z,41.65
2022-08-09T20:38:50.436Z,41.65
2022-08-09T20:41:05.932Z,41.97
2022-08-09T20:43:35.791Z,41.90
2022-08-09T20:46:33.524Z,42.42
2022-08-09T20:48:38.914Z,42.47
2022-08-09T20:51:19.693Z,42.75
2022-08-09T20:53:40.968Z,43.04
2022-08-09T20:56:20.123Z,43.44
2022-08-09T20:58:44.166Z,43.75
2022-08-09T21:01:34.296Z,44.88
2022-08-09T21:05:48.438Z,44.88
2022-08-09T21:06:18.204Z,45.25
2022-08-09T21:08:50.727Z,46.36
2022-08-09T21:13:59.820Z,45.49
2022-08-09T21:16:30.272Z,46.73
2022-08-09T21:20:05.291Z,46.78
2022-08-09T21:21:53.799Z,47.01
2022-08-09T21:24:02.249Z,46.91
2022-08-09T21:26:32.181Z,47.32
2022-08-09T21:29:11.625Z,48.17
2022-08-09T21:31:48.749Z,47.60
2022-08-09T21:34:07.707Z,48.28
2022-08-09T21:36:38.419Z,48.96
2022-08-09T21:39:09.806Z,48.72
2022-08-09T21:42:04.871Z,49.17
2022-08-09T21:44:12.603Z,49.23
2022-08-09T21:46:44.050Z,49.67
2022-08-09T21:49:13.896Z,49.46
2022-08-09T21:51:44.113Z,49.69
2022-08-09T21:54:15.538Z,49.08
2022-08-09T21:56:54.849Z,49.56
2022-08-09T21:59:17.836Z,49.41
2022-08-09T22:02:00.823Z,49.82
2022-08-09T22:04:19.312Z,49.73
2022-08-09T22:06:59.164Z,49.73
2022-08-09T22:09:21.908Z,50.03
2022-08-09T22:12:17.702Z,50.18
2022-08-09T22:14:25.205Z,50.62
2022-08-09T22:16:56.657Z,50.60
2022-08-09T22:19:58.003Z,49.85
2022-08-09T22:21:58.053Z,49.57
2022-08-09T22:24:27.825Z,49.71
2022-08-09T22:26:57.309Z,50.13
2022-08-09T22:29:38.358Z,49.77
2022-08-09T22:31:58.538Z,50.50
2022-08-09T22:34:29.121Z,50.50
2022-08-09T22:36:59.619Z,50.02
2022-08-09T22:39:57.412Z,50.34
2022-08-09T22:42:01.479Z,50.54
2022-08-09T22:44:33.034Z,49.80
2022-08-09T22:48:14.951Z,50.71
2022-08-09T22:49:36.753Z,50.71
2022-08-09T22:52:05.850Z,49.92
2022-08-09T22:54:37.085Z,50.30
2022-08-09T22:57:06.938Z,49.83
2022-08-09T22:59:55.384Z,49.83
2022-08-09T23:02:15.152Z,50.87
2022-08-09T23:04:53.479Z,50.87
2022-08-09T23:08:22.980Z,51.04
2022-08-09T23:10:08.010Z,50.73
2022-08-09T23:12:37.831Z,50.76
2022-08-09T23:15:07.977Z,50.76
2022-08-09T23:17:37.734Z,51.35
2022-08-09T23:20:08.730Z,51.65
2022-08-09T23:22:38.503Z,51.10
2022-08-09T23:25:08.526Z,50.68
2022-08-09T23:28:14.342Z,51.42
2022-08-09T23:30:12.547Z,51.15
2022-08-09T23:32:42.027Z,51.10
2022-08-09T23:35:11.819Z,51.77
2022-08-09T23:37:41.644Z,51.68
2022-08-09T23:40:12.917Z,51.50
2022-08-09T23:42:42.693Z,52.31
2022-08-09T23:45:37.281Z,52.28
2022-08-09T23:47:44.147Z,51.91
2022-08-09T23:50:15.431Z,52.28
2022-08-09T23:52:45.199Z,53.09
2022-08-09T23:55:17.891Z,52.18
2022-08-09T23:58:07.191Z,52.49
